sensor_id;sensor_type;location;lat;lon;timestamp;P1;durP1;ratioP1;P2;durP2;ratioP2
37903;SDS011;23738;50.422;18.758;2023-03-14T00:00:19;44.60;;;20.30;;
37903;SDS011;23738;50.422;18.758;2023-03-14T00:02:52;46.30;;;23.60;;
37903;SDS011;23738;50.422;18.758;2023-03-14T00:05:22;38.10;;;19.40;;
37903;SDS011;23738;50.422;18.758;2023-03-14T00:07:51;38.30;;;17.50;;
37903;SDS011;23738;50.422;18.758;2023-03-14T00:10:20;42.20;;;20.70;;
37903;SDS011;23738;50.422;18.758;2023-03-14T00:12:50;37.00;;;18.80;;
37903;SDS011;23738;50.422;18.758;2023-03-14T00:15:19;34.80;;;16.30;;
37903;SDS011;23738;50.422;18.758;2023-03-14T00:17:48;37.10;;;15.70;;
37903;SDS011;23738;50.422;18.758;2023-03-14T00:20:17;31.90;;;12.80;;
37903;SDS011;23738;50.422;18.758;2023-03-14T00:22:47;26.40;;;13.20;;
37903;SDS011;23738;50.422;18.758;2023-03-14T00:25:16;21.30;;;11.80;;
37903;SDS011;23738;50.422;18.758;2023-03-14T00:27:46;29.00;;;13.00;;
37903;SDS011;23738;50.422;18.758;2023-03-14T00:30:18;16.00;;;9.10;;
37903;SDS011;23738;50.422;18.758;2023-03-14T00:32:48;18.60;;;9.30;;
37903;SDS011;23738;50.422;18.758;2023-03-14T00:35:17;16.20;;;8.90;;
37903;SDS011;23738;50.422;18.758;2023-03-14T00:37:46;21.50;;;9.70;;
37903;SDS011;23738;50.422;18.758;2023-03-14T00:40:16;16.90;;;10.00;;
37903;SDS011;23738;50.422;18.758;2023-03-14T00:42:46;15.60;;;8.60;;
37903;SDS011;23738;50.422;18.758;2023-03-14T00:45:15;13.10;;;7.70;;
37903;SDS011;23738;50.422;18.758;2023-03-14T00:47:44;12.50;;;6.90;;
37903;SDS011;23738;50.422;18.758;2023-03-14T00:50:14;10.00;;;7.60;;
37903;SDS011;23738;50.422;18.758;2023-03-14T00:52:43;14.90;;;8.40;;
37903;SDS011;23738;50.422;18.758;2023-03-14T00:55:15;14.80;;;7.40;;
37903;SDS011;23738;50.422;18.758;2023-03-14T00:57:44;10.90;;;6.90;;
37903;SDS011;23738;50.422;18.758;2023-03-14T01:00:14;11.40;;;6.50;;
37903;SDS011;23738;50.422;18.758;2023-03-14T01:02:44;14.20;;;6.10;;
37903;SDS011;23738;50.422;18.758;2023-03-14T01:05:13;7.70;;;5.30;;
37903;SDS011;23738;50.422;18.758;2023-03-14T01:07:43;11.50;;;6.30;;
37903;SDS011;23738;50.422;18.758;2023-03-14T01:10:12;8.70;;;5.70;;
37903;SDS011;23738;50.422;18.758;2023-03-14T01:12:41;14.90;;;5.40;;
37903;SDS011;23738;50.422;18.758;2023-03-14T01:15:11;9.40;;;5.90;;
37903;SDS011;23738;50.422;18.758;2023-03-14T01:17:40;9.90;;;5.00;;
37903;SDS011;23738;50.422;18.758;2023-03-14T01:20:11;11.40;;;5.70;;
37903;SDS011;23738;50.422;18.758;2023-03-14T01:22:43;8.40;;;5.40;;
37903;SDS011;23738;50.422;18.758;2023-03-14T01:25:13;7.20;;;4.70;;
37903;SDS011;23738;50.422;18.758;2023-03-14T01:27:44;9.40;;;5.40;;
37903;SDS011;23738;50.422;18.758;2023-03-14T01:30:14;8.20;;;4.70;;
37903;SDS011;23738;50.422;18.758;2023-03-14T01:32:43;10.60;;;4.50;;
37903;SDS011;23738;50.422;18.758;2023-03-14T01:35:12;6.80;;;3.30;;
37903;SDS011;23738;50.422;18.758;2023-03-14T01:37:42;7.70;;;2.90;;
37903;SDS011;23738;50.422;18.758;2023-03-14T01:40:12;5.50;;;3.10;;
37903;SDS011;23738;50.422;18.758;2023-03-14T01:42:45;4.80;;;2.40;;
37903;SDS011;23738;50.422;18.758;2023-03-14T01:48:26;5.40;;;2.60;;
37903;SDS011;23738;50.422;18.758;2023-03-14T01:50:58;4.10;;;2.50;;
37903;SDS011;23738;50.422;18.758;2023-03-14T01:53:29;4.00;;;2.40;;
37903;SDS011;23738;50.422;18.758;2023-03-14T01:55:59;4.10;;;2.30;;
37903;SDS011;23738;50.422;18.758;2023-03-14T01:58:30;5.10;;;2.70;;
37903;SDS011;23738;50.422;18.758;2023-03-14T02:01:02;3.80;;;2.40;;
37903;SDS011;23738;50.422;18.758;2023-03-14T02:03:34;4.30;;;2.40;;
37903;SDS011;23738;50.422;18.758;2023-03-14T02:06:08;4.60;;;2.80;;
37903;SDS011;23738;50.422;18.758;2023-03-14T02:08:38;4.40;;;2.10;;
37903;SDS011;23738;50.422;18.758;2023-03-14T02:11:10;9.30;;;3.00;;
37903;SDS011;23738;50.422;18.758;2023-03-14T02:13:39;4.30;;;2.70;;
37903;SDS011;23738;50.422;18.758;2023-03-14T02:16:09;5.50;;;2.80;;
37903;SDS011;23738;50.422;18.758;2023-03-14T02:18:39;7.90;;;3.10;;
37903;SDS011;23738;50.422;18.758;2023-03-14T02:21:11;4.50;;;2.90;;
37903;SDS011;23738;50.422;18.758;2023-03-14T02:26:16;5.00;;;2.50;;
37903;SDS011;23738;50.422;18.758;2023-03-14T02:28:51;6.30;;;2.90;;
37903;SDS011;23738;50.422;18.758;2023-03-14T02:31:20;5.80;;;3.00;;
37903;SDS011;23738;50.422;18.758;2023-03-14T02:33:50;5.90;;;3.20;;
37903;SDS011;23738;50.422;18.758;2023-03-14T02:36:20;5.80;;;3.30;;
37903;SDS011;23738;50.422;18.758;2023-03-14T02:38:51;6.80;;;3.80;;
37903;SDS011;23738;50.422;18.758;2023-03-14T02:41:26;7.30;;;3.60;;
37903;SDS011;23738;50.422;18.758;2023-03-14T02:43:56;6.70;;;3.10;;
37903;SDS011;23738;50.422;18.758;2023-03-14T02:46:25;8.20;;;3.70;;
37903;SDS011;23738;50.422;18.758;2023-03-14T02:48:55;6.90;;;3.20;;
37903;SDS011;23738;50.422;18.758;2023-03-14T02:51:29;6.10;;;3.40;;
37903;SDS011;23738;50.422;18.758;2023-03-14T02:53:59;7.30;;;4.50;;
37903;SDS011;23738;50.422;18.758;2023-03-14T02:56:29;7.00;;;4.10;;
37903;SDS011;23738;50.422;18.758;2023-03-14T02:58:58;5.30;;;3.80;;
37903;SDS011;23738;50.422;18.758;2023-03-14T03:01:29;5.40;;;3.40;;
37903;SDS011;23738;50.422;18.758;2023-03-14T03:03:58;6.80;;;3.90;;
37903;SDS011;23738;50.422;18.758;2023-03-14T03:06:28;8.90;;;4.10;;
37903;SDS011;23738;50.422;18.758;2023-03-14T03:08:57;8.60;;;4.30;;
37903;SDS011;23738;50.422;18.758;2023-03-14T03:11:27;9.00;;;5.90;;
37903;SDS011;23738;50.422;18.758;2023-03-14T03:13:56;11.60;;;6.60;;
37903;SDS011;23738;50.422;18.758;2023-03-14T03:16:25;5.90;;;4.30;;
37903;SDS011;23738;50.422;18.758;2023-03-14T03:18:54;6.80;;;4.80;;
37903;SDS011;23738;50.422;18.758;2023-03-14T03:21:24;6.00;;;3.90;;
37903;SDS011;23738;50.422;18.758;2023-03-14T03:23:53;7.60;;;4.60;;
37903;SDS011;23738;50.422;18.758;2023-03-14T03:26:22;5.30;;;4.00;;
37903;SDS011;23738;50.422;18.758;2023-03-14T03:28:51;10.10;;;4.10;;
37903;SDS011;23738;50.422;18.758;2023-03-14T03:31:21;8.50;;;3.20;;
37903;SDS011;23738;50.422;18.758;2023-03-14T03:33:50;5.10;;;3.10;;
37903;SDS011;23738;50.422;18.758;2023-03-14T03:36:21;4.20;;;3.10;;
37903;SDS011;23738;50.422;18.758;2023-03-14T03:38:52;8.70;;;3.40;;
37903;SDS011;23738;50.422;18.758;2023-03-14T03:41:21;6.10;;;3.40;;
37903;SDS011;23738;50.422;18.758;2023-03-14T03:43:51;6.50;;;3.50;;
37903;SDS011;23738;50.422;18.758;2023-03-14T03:46:20;5.80;;;3.80;;
37903;SDS011;23738;50.422;18.758;2023-03-14T03:48:50;6.40;;;4.40;;
37903;SDS011;23738;50.422;18.758;2023-03-14T03:51:23;9.50;;;6.80;;
37903;SDS011;23738;50.422;18.758;2023-03-14T03:53:53;12.50;;;8.20;;
37903;SDS011;23738;50.422;18.758;2023-03-14T03:56:23;9.90;;;7.30;;
37903;SDS011;23738;50.422;18.758;2023-03-14T03:58:52;17.60;;;10.90;;
37903;SDS011;23738;50.422;18.758;2023-03-14T04:01:22;14.30;;;11.10;;
37903;SDS011;23738;50.422;18.758;2023-03-14T04:03:51;28.20;;;12.10;;
37903;SDS011;23738;50.422;18.758;2023-03-14T04:06:21;21.40;;;11.40;;
37903;SDS011;23738;50.422;18.758;2023-03-14T04:08:50;15.40;;;8.30;;
37903;SDS011;23738;50.422;18.758;2023-03-14T04:11:20;22.10;;;11.50;;
37903;SDS011;23738;50.422;18.758;2023-03-14T04:13:50;23.70;;;12.00;;
37903;SDS011;23738;50.422;18.758;2023-03-14T04:16:20;33.50;;;16.20;;
37903;SDS011;23738;50.422;18.758;2023-03-14T04:18:51;24.20;;;13.10;;
37903;SDS011;23738;50.422;18.758;2023-03-14T04:21:21;25.10;;;13.10;;
37903;SDS011;23738;50.422;18.758;2023-03-14T04:23:50;21.30;;;11.80;;
37903;SDS011;23738;50.422;18.758;2023-03-14T04:26:19;14.90;;;10.30;;
37903;SDS011;23738;50.422;18.758;2023-03-14T04:28:49;15.60;;;9.80;;
37903;SDS011;23738;50.422;18.758;2023-03-14T04:31:19;20.00;;;11.20;;
37903;SDS011;23738;50.422;18.758;2023-03-14T04:33:49;14.80;;;10.10;;
37903;SDS011;23738;50.422;18.758;2023-03-14T04:36:18;16.50;;;9.00;;
37903;SDS011;23738;50.422;18.758;2023-03-14T04:38:48;17.20;;;9.50;;
37903;SDS011;23738;50.422;18.758;2023-03-14T04:41:17;26.70;;;11.70;;
37903;SDS011;23738;50.422;18.758;2023-03-14T04:43:46;17.20;;;10.70;;
37903;SDS011;23738;50.422;18.758;2023-03-14T04:46:16;23.10;;;11.90;;
37903;SDS011;23738;50.422;18.758;2023-03-14T04:48:45;39.60;;;15.80;;
37903;SDS011;23738;50.422;18.758;2023-03-14T04:51:14;24.80;;;12.70;;
37903;SDS011;23738;50.422;18.758;2023-03-14T04:53:43;29.40;;;13.70;;
37903;SDS011;23738;50.422;18.758;2023-03-14T04:56:13;22.30;;;12.40;;
37903;SDS011;23738;50.422;18.758;2023-03-14T04:58:42;20.90;;;12.70;;
37903;SDS011;23738;50.422;18.758;2023-03-14T05:01:11;20.20;;;12.40;;
37903;SDS011;23738;50.422;18.758;2023-03-14T05:03:41;29.80;;;14.40;;
37903;SDS011;23738;50.422;18.758;2023-03-14T05:06:10;22.40;;;12.20;;
37903;SDS011;23738;50.422;18.758;2023-03-14T05:08:39;21.10;;;10.80;;
37903;SDS011;23738;50.422;18.758;2023-03-14T05:11:11;17.10;;;10.30;;
37903;SDS011;23738;50.422;18.758;2023-03-14T05:13:41;22.00;;;10.80;;
37903;SDS011;23738;50.422;18.758;2023-03-14T05:16:10;16.70;;;11.40;;
37903;SDS011;23738;50.422;18.758;2023-03-14T05:18:40;21.30;;;11.30;;
37903;SDS011;23738;50.422;18.758;2023-03-14T05:21:09;18.30;;;11.40;;
37903;SDS011;23738;50.422;18.758;2023-03-14T05:23:38;20.40;;;12.20;;
37903;SDS011;23738;50.422;18.758;2023-03-14T05:26:07;16.30;;;11.00;;
37903;SDS011;23738;50.422;18.758;2023-03-14T05:28:36;15.90;;;10.50;;
37903;SDS011;23738;50.422;18.758;2023-03-14T05:31:07;19.60;;;12.10;;
37903;SDS011;23738;50.422;18.758;2023-03-14T05:33:37;59.70;;;23.70;;
37903;SDS011;23738;50.422;18.758;2023-03-14T05:36:08;23.30;;;14.40;;
37903;SDS011;23738;50.422;18.758;2023-03-14T05:38:37;59.20;;;27.00;;
37903;SDS011;23738;50.422;18.758;2023-03-14T05:41:07;63.70;;;27.10;;
37903;SDS011;23738;50.422;18.758;2023-03-14T05:43:36;65.20;;;29.70;;
37903;SDS011;23738;50.422;18.758;2023-03-14T05:46:06;72.00;;;31.90;;
37903;SDS011;23738;50.422;18.758;2023-03-14T05:48:35;74.30;;;30.70;;
37903;SDS011;23738;50.422;18.758;2023-03-14T05:51:05;67.40;;;28.50;;
37903;SDS011;23738;50.422;18.758;2023-03-14T05:53:35;79.90;;;34.60;;
37903;SDS011;23738;50.422;18.758;2023-03-14T05:56:05;73.90;;;32.60;;
37903;SDS011;23738;50.422;18.758;2023-03-14T05:58:35;70.30;;;27.00;;
37903;SDS011;23738;50.422;18.758;2023-03-14T06:01:05;67.50;;;29.20;;
37903;SDS011;23738;50.422;18.758;2023-03-14T06:03:35;63.00;;;28.20;;
37903;SDS011;23738;50.422;18.758;2023-03-14T06:06:05;54.70;;;25.50;;
37903;SDS011;23738;50.422;18.758;2023-03-14T06:08:35;65.60;;;29.20;;
37903;SDS011;23738;50.422;18.758;2023-03-14T06:11:05;56.60;;;25.10;;
37903;SDS011;23738;50.422;18.758;2023-03-14T06:13:35;58.10;;;25.80;;
37903;SDS011;23738;50.422;18.758;2023-03-14T06:16:05;36.80;;;17.40;;
37903;SDS011;23738;50.422;18.758;2023-03-14T06:18:35;32.70;;;15.20;;
37903;SDS011;23738;50.422;18.758;2023-03-14T06:21:05;27.10;;;15.90;;
37903;SDS011;23738;50.422;18.758;2023-03-14T06:23:35;41.80;;;19.40;;
37903;SDS011;23738;50.422;18.758;2023-03-14T06:26:05;48.50;;;28.30;;
37903;SDS011;23738;50.422;18.758;2023-03-14T06:28:35;84.80;;;44.10;;
37903;SDS011;23738;50.422;18.758;2023-03-14T06:31:04;69.20;;;34.70;;
37903;SDS011;23738;50.422;18.758;2023-03-14T06:33:34;75.30;;;41.50;;
37903;SDS011;23738;50.422;18.758;2023-03-14T06:36:04;69.50;;;37.10;;
37903;SDS011;23738;50.422;18.758;2023-03-14T06:38:34;54.60;;;30.80;;
37903;SDS011;23738;50.422;18.758;2023-03-14T06:41:04;67.00;;;39.30;;
37903;SDS011;23738;50.422;18.758;2023-03-14T06:43:34;74.60;;;42.60;;
37903;SDS011;23738;50.422;18.758;2023-03-14T06:46:04;38.10;;;22.10;;
37903;SDS011;23738;50.422;18.758;2023-03-14T06:48:34;40.20;;;25.70;;
37903;SDS011;23738;50.422;18.758;2023-03-14T06:51:03;28.30;;;16.00;;
37903;SDS011;23738;50.422;18.758;2023-03-14T06:53:33;14.60;;;9.70;;
37903;SDS011;23738;50.422;18.758;2023-03-14T06:56:03;14.50;;;9.70;;
37903;SDS011;23738;50.422;18.758;2023-03-14T06:58:34;14.30;;;8.00;;
37903;SDS011;23738;50.422;18.758;2023-03-14T07:01:03;13.70;;;7.90;;
37903;SDS011;23738;50.422;18.758;2023-03-14T07:03:33;15.80;;;7.60;;
37903;SDS011;23738;50.422;18.758;2023-03-14T07:06:03;11.40;;;7.90;;
37903;SDS011;23738;50.422;18.758;2023-03-14T07:08:33;12.50;;;6.80;;
37903;SDS011;23738;50.422;18.758;2023-03-14T07:11:04;13.60;;;6.90;;
37903;SDS011;23738;50.422;18.758;2023-03-14T07:13:36;12.40;;;7.70;;
37903;SDS011;23738;50.422;18.758;2023-03-14T07:16:06;14.60;;;7.60;;
37903;SDS011;23738;50.422;18.758;2023-03-14T07:18:36;14.80;;;8.30;;
37903;SDS011;23738;50.422;18.758;2023-03-14T07:21:06;13.40;;;8.10;;
37903;SDS011;23738;50.422;18.758;2023-03-14T07:23:36;16.90;;;9.10;;
37903;SDS011;23738;50.422;18.758;2023-03-14T07:26:06;15.30;;;9.40;;
37903;SDS011;23738;50.422;18.758;2023-03-14T07:28:35;17.70;;;9.50;;
37903;SDS011;23738;50.422;18.758;2023-03-14T07:31:05;26.70;;;13.30;;
37903;SDS011;23738;50.422;18.758;2023-03-14T07:33:34;22.00;;;12.30;;
37903;SDS011;23738;50.422;18.758;2023-03-14T07:36:04;16.90;;;11.40;;
37903;SDS011;23738;50.422;18.758;2023-03-14T07:38:35;22.40;;;11.40;;
37903;SDS011;23738;50.422;18.758;2023-03-14T07:41:05;20.80;;;11.80;;
37903;SDS011;23738;50.422;18.758;2023-03-14T07:43:35;19.80;;;9.90;;
37903;SDS011;23738;50.422;18.758;2023-03-14T07:46:05;14.40;;;9.30;;
37903;SDS011;23738;50.422;18.758;2023-03-14T07:48:35;15.10;;;9.40;;
37903;SDS011;23738;50.422;18.758;2023-03-14T07:51:05;13.50;;;8.00;;
37903;SDS011;23738;50.422;18.758;2023-03-14T07:53:35;11.50;;;6.90;;
37903;SDS011;23738;50.422;18.758;2023-03-14T07:56:05;10.20;;;6.20;;
37903;SDS011;23738;50.422;18.758;2023-03-14T07:58:35;9.60;;;6.90;;
37903;SDS011;23738;50.422;18.758;2023-03-14T08:01:05;13.90;;;6.80;;
37903;SDS011;23738;50.422;18.758;2023-03-14T08:03:35;13.60;;;7.30;;
37903;SDS011;23738;50.422;18.758;2023-03-14T08:06:05;14.30;;;6.70;;
37903;SDS011;23738;50.422;18.758;2023-03-14T08:08:35;12.20;;;6.80;;
37903;SDS011;23738;50.422;18.758;2023-03-14T08:11:05;13.30;;;6.70;;
37903;SDS011;23738;50.422;18.758;2023-03-14T08:13:36;9.90;;;6.40;;
37903;SDS011;23738;50.422;18.758;2023-03-14T08:16:07;10.10;;;7.00;;
37903;SDS011;23738;50.422;18.758;2023-03-14T08:18:37;11.70;;;6.60;;
37903;SDS011;23738;50.422;18.758;2023-03-14T08:21:07;10.10;;;5.90;;
37903;SDS011;23738;50.422;18.758;2023-03-14T08:23:36;15.80;;;6.10;;
37903;SDS011;23738;50.422;18.758;2023-03-14T08:26:06;6.50;;;4.70;;
37903;SDS011;23738;50.422;18.758;2023-03-14T08:28:36;6.10;;;4.50;;
37903;SDS011;23738;50.422;18.758;2023-03-14T08:31:05;7.20;;;4.40;;
37903;SDS011;23738;50.422;18.758;2023-03-14T08:33:35;6.00;;;3.90;;
37903;SDS011;23738;50.422;18.758;2023-03-14T08:36:04;5.50;;;3.70;;
37903;SDS011;23738;50.422;18.758;2023-03-14T08:38:35;10.10;;;4.00;;
37903;SDS011;23738;50.422;18.758;2023-03-14T08:41:04;4.60;;;3.40;;
37903;SDS011;23738;50.422;18.758;2023-03-14T08:43:34;4.70;;;3.00;;
37903;SDS011;23738;50.422;18.758;2023-03-14T08:46:04;3.70;;;2.90;;
37903;SDS011;23738;50.422;18.758;2023-03-14T08:48:34;6.20;;;3.70;;
37903;SDS011;23738;50.422;18.758;2023-03-14T08:51:07;6.20;;;3.90;;
37903;SDS011;23738;50.422;18.758;2023-03-14T08:53:39;6.00;;;3.20;;
37903;SDS011;23738;50.422;18.758;2023-03-14T08:56:09;3.90;;;3.00;;
37903;SDS011;23738;50.422;18.758;2023-03-14T08:58:38;5.10;;;3.00;;
37903;SDS011;23738;50.422;18.758;2023-03-14T09:01:09;5.60;;;3.30;;
37903;SDS011;23738;50.422;18.758;2023-03-14T09:03:38;5.10;;;3.30;;
37903;SDS011;23738;50.422;18.758;2023-03-14T09:06:10;5.30;;;3.40;;
37903;SDS011;23738;50.422;18.758;2023-03-14T09:08:39;6.70;;;4.10;;
37903;SDS011;23738;50.422;18.758;2023-03-14T09:11:08;7.70;;;2.90;;
37903;SDS011;23738;50.422;18.758;2023-03-14T09:13:38;4.30;;;2.70;;
37903;SDS011;23738;50.422;18.758;2023-03-14T09:16:08;4.70;;;2.90;;
37903;SDS011;23738;50.422;18.758;2023-03-14T09:18:38;6.30;;;2.90;;
37903;SDS011;23738;50.422;18.758;2023-03-14T09:21:07;6.10;;;4.00;;
37903;SDS011;23738;50.422;18.758;2023-03-14T09:23:37;6.00;;;3.80;;
37903;SDS011;23738;50.422;18.758;2023-03-14T09:26:07;6.10;;;3.50;;
37903;SDS011;23738;50.422;18.758;2023-03-14T09:28:36;5.30;;;3.40;;
37903;SDS011;23738;50.422;18.758;2023-03-14T09:31:07;5.70;;;3.10;;
37903;SDS011;23738;50.422;18.758;2023-03-14T09:33:37;4.90;;;3.00;;
37903;SDS011;23738;50.422;18.758;2023-03-14T09:36:08;6.30;;;3.30;;
37903;SDS011;23738;50.422;18.758;2023-03-14T09:38:38;5.70;;;3.10;;
37903;SDS011;23738;50.422;18.758;2023-03-14T09:41:13;4.60;;;3.10;;
37903;SDS011;23738;50.422;18.758;2023-03-14T09:43:45;7.90;;;2.90;;
37903;SDS011;23738;50.422;18.758;2023-03-14T09:46:19;4.30;;;3.10;;
37903;SDS011;23738;50.422;18.758;2023-03-14T09:48:50;5.30;;;3.20;;
37903;SDS011;23738;50.422;18.758;2023-03-14T09:51:19;5.10;;;3.00;;
37903;SDS011;23738;50.422;18.758;2023-03-14T09:53:50;6.80;;;3.40;;
37903;SDS011;23738;50.422;18.758;2023-03-14T09:56:20;5.60;;;3.60;;
37903;SDS011;23738;50.422;18.758;2023-03-14T09:58:53;6.30;;;3.40;;
37903;SDS011;23738;50.422;18.758;2023-03-14T10:01:26;5.10;;;3.20;;
37903;SDS011;23738;50.422;18.758;2023-03-14T10:03:57;4.70;;;3.40;;
37903;SDS011;23738;50.422;18.758;2023-03-14T10:06:31;6.40;;;4.10;;
37903;SDS011;23738;50.422;18.758;2023-03-14T10:09:02;5.30;;;3.60;;
37903;SDS011;23738;50.422;18.758;2023-03-14T10:11:32;4.70;;;3.50;;
37903;SDS011;23738;50.422;18.758;2023-03-14T10:14:06;3.90;;;3.30;;
37903;SDS011;23738;50.422;18.758;2023-03-14T10:16:40;8.20;;;3.40;;
37903;SDS011;23738;50.422;18.758;2023-03-14T10:19:11;4.30;;;3.30;;
37903;SDS011;23738;50.422;18.758;2023-03-14T10:21:43;6.90;;;3.20;;
37903;SDS011;23738;50.422;18.758;2023-03-14T10:26:50;6.40;;;3.60;;
37903;SDS011;23738;50.422;18.758;2023-03-14T10:29:21;6.80;;;3.40;;
37903;SDS011;23738;50.422;18.758;2023-03-14T10:31:52;7.80;;;4.00;;
37903;SDS011;23738;50.422;18.758;2023-03-14T10:34:28;5.70;;;3.80;;
37903;SDS011;23738;50.422;18.758;2023-03-14T10:36:59;6.00;;;4.20;;
37903;SDS011;23738;50.422;18.758;2023-03-14T10:39:39;4.70;;;3.20;;
37903;SDS011;23738;50.422;18.758;2023-03-14T10:42:15;9.10;;;3.90;;
37903;SDS011;23738;50.422;18.758;2023-03-14T10:44:51;6.40;;;4.20;;
37903;SDS011;23738;50.422;18.758;2023-03-14T10:47:24;6.10;;;4.30;;
37903;SDS011;23738;50.422;18.758;2023-03-14T10:49:56;7.40;;;5.30;;
37903;SDS011;23738;50.422;18.758;2023-03-14T10:52:47;5.80;;;4.10;;
37903;SDS011;23738;50.422;18.758;2023-03-14T10:55:17;6.40;;;4.40;;
37903;SDS011;23738;50.422;18.758;2023-03-14T10:57:47;6.10;;;4.80;;
37903;SDS011;23738;50.422;18.758;2023-03-14T11:00:18;6.70;;;4.70;;
37903;SDS011;23738;50.422;18.758;2023-03-14T11:02:52;7.70;;;4.60;;
37903;SDS011;23738;50.422;18.758;2023-03-14T11:05:33;6.40;;;4.20;;
37903;SDS011;23738;50.422;18.758;2023-03-14T11:08:09;7.90;;;4.40;;
37903;SDS011;23738;50.422;18.758;2023-03-14T11:10:46;8.30;;;5.50;;
37903;SDS011;23738;50.422;18.758;2023-03-14T11:13:21;12.70;;;8.20;;
37903;SDS011;23738;50.422;18.758;2023-03-14T11:16:01;7.00;;;5.50;;
37903;SDS011;23738;50.422;18.758;2023-03-14T11:21:47;6.60;;;5.10;;
37903;SDS011;23738;50.422;18.758;2023-03-14T11:27:14;6.10;;;3.80;;
37903;SDS011;23738;50.422;18.758;2023-03-14T11:29:53;7.10;;;5.00;;
37903;SDS011;23738;50.422;18.758;2023-03-14T11:32:29;7.90;;;4.40;;
37903;SDS011;23738;50.422;18.758;2023-03-14T11:35:13;7.50;;;5.50;;
37903;SDS011;23738;50.422;18.758;2023-03-14T11:37:48;11.40;;;6.70;;
37903;SDS011;23738;50.422;18.758;2023-03-14T11:40:23;10.30;;;6.90;;
37903;SDS011;23738;50.422;18.758;2023-03-14T11:42:56;10.10;;;6.90;;
37903;SDS011;23738;50.422;18.758;2023-03-14T11:45:32;10.50;;;6.80;;
37903;SDS011;23738;50.422;18.758;2023-03-14T11:48:10;9.90;;;6.50;;
37903;SDS011;23738;50.422;18.758;2023-03-14T11:50:48;8.30;;;5.80;;
37903;SDS011;23738;50.422;18.758;2023-03-14T11:53:21;10.40;;;6.90;;
37903;SDS011;23738;50.422;18.758;2023-03-14T11:55:59;10.60;;;7.60;;
37903;SDS011;23738;50.422;18.758;2023-03-14T11:58:29;11.00;;;6.20;;
37903;SDS011;23738;50.422;18.758;2023-03-14T12:01:02;8.00;;;5.90;;
37903;SDS011;23738;50.422;18.758;2023-03-14T12:03:41;10.20;;;6.70;;
37903;SDS011;23738;50.422;18.758;2023-03-14T12:06:17;12.50;;;6.50;;
37903;SDS011;23738;50.422;18.758;2023-03-14T12:08:52;12.10;;;6.40;;
37903;SDS011;23738;50.422;18.758;2023-03-14T12:11:28;10.80;;;7.00;;
37903;SDS011;23738;50.422;18.758;2023-03-14T12:14:15;10.50;;;8.40;;
37903;SDS011;23738;50.422;18.758;2023-03-14T12:16:49;13.80;;;10.60;;
37903;SDS011;23738;50.422;18.758;2023-03-14T12:19:29;10.60;;;8.70;;
37903;SDS011;23738;50.422;18.758;2023-03-14T12:22:05;12.20;;;10.10;;
37903;SDS011;23738;50.422;18.758;2023-03-14T12:24:47;12.70;;;6.30;;
37903;SDS011;23738;50.422;18.758;2023-03-14T12:30:16;8.80;;;6.50;;
37903;SDS011;23738;50.422;18.758;2023-03-14T12:33:18;8.00;;;6.40;;
37903;SDS011;23738;50.422;18.758;2023-03-14T12:35:57;8.40;;;5.70;;
37903;SDS011;23738;50.422;18.758;2023-03-14T12:38:32;11.70;;;4.80;;
37903;SDS011;23738;50.422;18.758;2023-03-14T12:41:14;8.70;;;5.50;;
37903;SDS011;23738;50.422;18.758;2023-03-14T12:43:45;12.50;;;5.30;;
37903;SDS011;23738;50.422;18.758;2023-03-14T12:46:19;7.70;;;5.30;;
37903;SDS011;23738;50.422;18.758;2023-03-14T12:48:50;12.10;;;5.50;;
37903;SDS011;23738;50.422;18.758;2023-03-14T12:51:34;7.20;;;5.30;;
37903;SDS011;23738;50.422;18.758;2023-03-14T12:54:13;9.00;;;5.90;;
37903;SDS011;23738;50.422;18.758;2023-03-14T12:56:58;6.50;;;5.50;;
37903;SDS011;23738;50.422;18.758;2023-03-14T12:59:37;7.00;;;5.70;;
37903;SDS011;23738;50.422;18.758;2023-03-14T13:02:20;7.20;;;5.70;;
37903;SDS011;23738;50.422;18.758;2023-03-14T13:04:53;16.40;;;5.00;;
37903;SDS011;23738;50.422;18.758;2023-03-14T13:07:32;7.60;;;4.70;;
37903;SDS011;23738;50.422;18.758;2023-03-14T13:10:26;6.70;;;4.90;;
37903;SDS011;23738;50.422;18.758;2023-03-14T13:12:57;7.50;;;5.00;;
37903;SDS011;23738;50.422;18.758;2023-03-14T13:15:38;10.40;;;5.80;;
37903;SDS011;23738;50.422;18.758;2023-03-14T13:18:11;9.70;;;6.10;;
37903;SDS011;23738;50.422;18.758;2023-03-14T13:20:44;8.20;;;5.60;;
37903;SDS011;23738;50.422;18.758;2023-03-14T13:23:20;6.90;;;5.00;;
37903;SDS011;23738;50.422;18.758;2023-03-14T13:25:51;8.30;;;5.60;;
37903;SDS011;23738;50.422;18.758;2023-03-14T13:28:21;6.10;;;4.30;;
37903;SDS011;23738;50.422;18.758;2023-03-14T13:30:54;7.80;;;5.80;;
37903;SDS011;23738;50.422;18.758;2023-03-14T13:33:25;8.00;;;5.70;;
37903;SDS011;23738;50.422;18.758;2023-03-14T13:35:56;5.70;;;5.10;;
37903;SDS011;23738;50.422;18.758;2023-03-14T13:38:29;6.40;;;5.30;;
37903;SDS011;23738;50.422;18.758;2023-03-14T13:41:00;6.90;;;4.70;;
37903;SDS011;23738;50.422;18.758;2023-03-14T13:43:34;8.00;;;5.30;;
37903;SDS011;23738;50.422;18.758;2023-03-14T13:46:11;7.20;;;5.70;;
37903;SDS011;23738;50.422;18.758;2023-03-14T13:48:43;8.00;;;6.10;;
37903;SDS011;23738;50.422;18.758;2023-03-14T13:51:16;7.60;;;5.90;;
37903;SDS011;23738;50.422;18.758;2023-03-14T13:53:47;7.70;;;5.60;;
37903;SDS011;23738;50.422;18.758;2023-03-14T13:56:17;8.10;;;6.10;;
37903;SDS011;23738;50.422;18.758;2023-03-14T13:58:48;6.20;;;4.90;;
37903;SDS011;23738;50.422;18.758;2023-03-14T14:01:19;6.70;;;5.30;;
37903;SDS011;23738;50.422;18.758;2023-03-14T14:03:51;10.80;;;6.30;;
37903;SDS011;23738;50.422;18.758;2023-03-14T14:06:25;8.10;;;5.60;;
37903;SDS011;23738;50.422;18.758;2023-03-14T14:08:58;7.90;;;6.00;;
37903;SDS011;23738;50.422;18.758;2023-03-14T14:11:36;9.00;;;6.80;;
37903;SDS011;23738;50.422;18.758;2023-03-14T14:14:10;12.10;;;7.90;;
37903;SDS011;23738;50.422;18.758;2023-03-14T14:16:44;11.00;;;7.50;;
37903;SDS011;23738;50.422;18.758;2023-03-14T14:19:15;9.50;;;6.90;;
37903;SDS011;23738;50.422;18.758;2023-03-14T14:21:46;9.60;;;7.20;;
37903;SDS011;23738;50.422;18.758;2023-03-14T14:24:16;11.20;;;8.60;;
37903;SDS011;23738;50.422;18.758;2023-03-14T14:26:48;14.30;;;9.00;;
37903;SDS011;23738;50.422;18.758;2023-03-14T14:29:23;13.50;;;9.30;;
37903;SDS011;23738;50.422;18.758;2023-03-14T14:32:02;15.90;;;10.20;;
37903;SDS011;23738;50.422;18.758;2023-03-14T14:34:42;14.70;;;9.90;;
37903;SDS011;23738;50.422;18.758;2023-03-14T14:37:19;17.80;;;11.50;;
37903;SDS011;23738;50.422;18.758;2023-03-14T14:39:51;15.30;;;10.90;;
37903;SDS011;23738;50.422;18.758;2023-03-14T14:42:24;13.30;;;11.80;;
37903;SDS011;23738;50.422;18.758;2023-03-14T14:44:57;35.10;;;18.90;;
37903;SDS011;23738;50.422;18.758;2023-03-14T14:47:27;18.40;;;13.10;;
37903;SDS011;23738;50.422;18.758;2023-03-14T14:49:59;12.20;;;9.50;;
37903;SDS011;23738;50.422;18.758;2023-03-14T14:52:33;13.20;;;11.50;;
37903;SDS011;23738;50.422;18.758;2023-03-14T14:55:12;12.10;;;10.10;;
37903;SDS011;23738;50.422;18.758;2023-03-14T14:57:49;14.40;;;11.40;;
37903;SDS011;23738;50.422;18.758;2023-03-14T15:00:23;16.00;;;10.90;;
37903;SDS011;23738;50.422;18.758;2023-03-14T15:02:54;10.70;;;8.20;;
37903;SDS011;23738;50.422;18.758;2023-03-14T15:05:27;11.70;;;8.00;;